Time;durP1;ratioP1;P1;durP2;ratioP2;P2;SDS_P1;SDS_P2;PMS_P1;PMS_P2;Temp;Humidity;BMP_temperature;BMP_pressure;BME280_temperature;BME280_humidity;BME280_pressure;Samples;Min_cycle;Max_cycle;Signal;HPM_P1;HPM_P2
2022/07/20 00:01:40;;;;;;;10.83;7.70;;;23.50;99.90;;;;;;5047624;28;20304;-51
2022/07/20 00:04:07;;;;;;;8.20;7.60;;;23.50;99.90;;;;;;5051847;28;20274;-51
2022/07/20 00:06:34;;;;;;;8.47;7.47;;;23.50;99.90;;;;;;5051700;28;20201;-50
2022/07/20 00:11:47;;;;;;;11.17;8.00;;;23.50;99.90;;;;;;5047151;28;20201;-51
2022/07/20 00:14:15;;;;;;;8.20;7.70;;;23.40;99.90;;;;;;5052857;28;20194;-51
2022/07/20 00:16:42;;;;;;;7.10;6.70;;;23.40;99.90;;;;;;5048349;28;20240;-50
2022/07/20 00:19:09;;;;;;;7.73;6.63;;;23.30;99.90;;;;;;5048590;28;20204;-51
2022/07/20 00:21:36;;;;;;;6.97;6.43;;;23.30;99.90;;;;;;5052640;28;20225;-51
2022/07/20 00:24:03;;;;;;;7.20;6.70;;;23.30;99.90;;;;;;5050218;28;20260;-51
2022/07/20 00:26:30;;;;;;;7.77;7.27;;;23.30;99.90;;;;;;5047955;28;20201;-51
2022/07/20 00:28:59;;;;;;;6.90;6.47;;;23.20;99.90;;;;;;5050725;28;20198;-51
2022/07/20 00:31:26;;;;;;;6.50;6.13;;;23.10;99.90;;;;;;5050978;28;20755;-50
2022/07/20 00:33:56;;;;;;;7.53;6.93;;;22.90;99.90;;;;;;5052786;28;20214;-51
2022/07/20 00:36:23;;;;;;;6.17;5.87;;;22.80;99.90;;;;;;5049660;28;20193;-51
2022/07/20 00:38:50;;;;;;;7.33;6.83;;;22.70;99.90;;;;;;5052747;28;20262;-51
2022/07/20 00:41:17;;;;;;;6.80;6.43;;;22.60;99.90;;;;;;5052009;28;20296;-51
2022/07/20 00:43:55;;;;;;;7.10;6.50;;;22.60;99.90;;;;;;5048205;28;20249;-50
2022/07/20 00:46:23;;;;;;;7.37;6.93;;;22.60;99.90;;;;;;5072679;22;20233;-54
2022/07/20 00:48:50;;;;;;;7.47;7.00;;;22.60;99.90;;;;;;5049823;28;20249;-55
2022/07/20 00:51:17;;;;;;;7.60;7.00;;;22.60;99.90;;;;;;5054792;28;20197;-54
2022/07/20 00:53:45;;;;;;;7.33;6.80;;;22.60;99.90;;;;;;5052861;28;20370;-54
2022/07/20 00:56:12;;;;;;;7.23;6.83;;;22.50;99.90;;;;;;5044009;28;20222;-55
2022/07/20 00:58:39;;;;;;;7.50;7.00;;;22.40;99.90;;;;;;5029972;28;20246;-54
2022/07/20 01:01:06;;;;;;;8.07;7.23;;;22.30;99.90;;;;;;5043098;28;20243;-54
2022/07/20 01:03:35;;;;;;;7.33;6.83;;;22.30;99.90;;;;;;5052284;28;20727;-54
2022/07/20 01:06:02;;;;;;;6.77;6.27;;;22.20;99.90;;;;;;5048488;28;20281;-54
2022/07/20 01:08:29;;;;;;;6.33;5.93;;;22.10;99.90;;;;;;5043707;28;20198;-54
2022/07/20 01:10:57;;;;;;;6.57;6.20;;;22.10;99.90;;;;;;5045479;28;20249;-54
2022/07/20 01:13:24;;;;;;;6.70;6.27;;;22.10;99.90;;;;;;5042737;28;20190;-54
2022/07/20 01:15:51;;;;;;;6.80;6.30;;;22.20;99.90;;;;;;5047499;28;20625;-54
2022/07/20 01:18:18;;;;;;;7.03;6.60;;;22.20;99.90;;;;;;5039348;28;20198;-55
2022/07/20 01:20:49;;;;;;;6.23;5.83;;;22.20;99.90;;;;;;5048624;28;20289;-54
2022/07/20 01:23:20;;;;;;;6.70;6.40;;;22.20;99.90;;;;;;5044288;28;20280;-54
2022/07/20 01:25:47;;;;;;;6.77;6.37;;;22.10;99.90;;;;;;5037915;28;20289;-54
2022/07/20 01:28:18;;;;;;;6.73;6.23;;;22.00;99.90;;;;;;5037515;28;20198;-54
2022/07/20 01:30:45;;;;;;;6.43;5.93;;;22.00;99.90;;;;;;5035962;28;20207;-54
2022/07/20 01:33:12;;;;;;;8.10;7.40;;;21.90;99.90;;;;;;5034621;28;20194;-54
2022/07/20 01:35:39;;;;;;;8.33;7.63;;;21.90;99.90;;;;;;5045790;28;20234;-54
2022/07/20 01:38:06;;;;;;;8.00;6.40;;;21.90;99.90;;;;;;5031190;28;20268;-55
2022/07/20 01:40:34;;;;;;;7.47;6.77;;;21.90;99.90;;;;;;5030941;28;20627;-55
2022/07/20 01:43:01;;;;;;;6.27;6.07;;;21.90;99.90;;;;;;5030729;28;20225;-55
2022/07/20 01:45:28;;;;;;;7.00;6.37;;;21.90;99.90;;;;;;5031407;28;20202;-54
2022/07/20 01:47:55;;;;;;;8.40;7.57;;;21.90;99.90;;;;;;5030519;28;20288;-54
2022/07/20 01:50:22;;;;;;;7.87;7.20;;;21.90;99.90;;;;;;5039604;28;20229;-54
2022/07/20 01:52:49;;;;;;;7.60;7.00;;;21.90;99.90;;;;;;5030704;28;20280;-54
2022/07/20 01:55:16;;;;;;;7.30;6.80;;;21.90;99.90;;;;;;5033718;28;20252;-54
2022/07/20 01:57:45;;;;;;;7.73;7.17;;;22.00;99.90;;;;;;5035366;28;20297;-54
2022/07/20 02:00:13;;;;;;;7.60;7.00;;;22.00;99.90;;;;;;5031229;28;20199;-54
2022/07/20 02:02:40;;;;;;;7.97;7.37;;;21.90;99.90;;;;;;5030638;28;20373;-54
2022/07/20 02:05:09;;;;;;;8.43;7.63;;;21.90;99.90;;;;;;5032286;28;20243;-54
2022/07/20 02:07:36;;;;;;;7.20;6.70;;;21.90;99.90;;;;;;5042919;28;20300;-54
2022/07/20 02:10:05;;;;;;;7.47;6.90;;;21.90;99.90;;;;;;5046234;28;20203;-54
2022/07/20 02:12:32;;;;;;;7.63;6.90;;;21.90;99.90;;;;;;5038553;28;20198;-54
2022/07/20 02:15:00;;;;;;;8.07;7.43;;;21.90;99.90;;;;;;5032195;28;20202;-54
2022/07/20 02:17:27;;;;;;;7.40;6.80;;;21.80;99.90;;;;;;5042372;28;20277;-54
2022/07/20 02:19:54;;;;;;;8.00;7.50;;;21.70;99.90;;;;;;5050982;28;20259;-54
2022/07/20 02:22:21;;;;;;;7.70;7.10;;;21.70;99.90;;;;;;5049620;28;20295;-54
2022/07/20 02:24:48;;;;;;;7.63;7.03;;;21.60;99.90;;;;;;5030264;28;20229;-54
2022/07/20 02:27:15;;;;;;;8.00;7.30;;;21.60;99.90;;;;;;5031176;28;20226;-54
2022/07/20 02:29:42;;;;;;;8.27;7.47;;;21.60;99.90;;;;;;5035050;28;20252;-54
2022/07/20 02:32:10;;;;;;;7.03;6.53;;;21.60;99.90;;;;;;5041830;28;20202;-54
2022/07/20 02:34:37;;;;;;;7.00;6.57;;;21.60;99.90;;;;;;5040430;28;20209;-54
2022/07/20 02:37:04;;;;;;;8.33;7.67;;;21.60;99.90;;;;;;5041481;28;20305;-54
2022/07/20 02:39:31;;;;;;;7.63;7.13;;;21.70;99.90;;;;;;5049609;28;20198;-54
2022/07/20 02:41:58;;;;;;;8.10;7.57;;;21.70;99.90;;;;;;5053849;28;20643;-54
2022/07/20 02:44:25;;;;;;;7.87;7.20;;;21.70;99.90;;;;;;5042804;28;20663;-54
2022/07/20 02:46:52;;;;;;;6.43;6.00;;;21.60;99.90;;;;;;5041989;28;20230;-54
2022/07/20 02:49:20;;;;;;;8.00;7.37;;;21.50;99.90;;;;;;5035914;28;20198;-55
2022/07/20 02:51:47;;;;;;;7.73;7.33;;;21.50;99.90;;;;;;5051030;28;20610;-54
2022/07/20 02:54:14;;;;;;;7.17;6.53;;;21.50;99.90;;;;;;5045823;28;20246;-55
2022/07/20 02:56:41;;;;;;;6.87;6.20;;;21.40;99.90;;;;;;5050557;28;20245;-55
2022/07/20 02:59:08;;;;;;;7.53;6.90;;;21.30;99.90;;;;;;5042295;28;20199;-54
2022/07/20 03:01:35;;;;;;;7.37;6.67;;;21.30;99.90;;;;;;5048940;28;20228;-55
2022/07/20 03:04:02;;;;;;;8.20;6.13;;;21.20;99.90;;;;;;5047505;28;20222;-54
2022/07/20 03:06:30;;;;;;;7.53;7.03;;;21.10;99.90;;;;;;5048887;28;20276;-54
2022/07/20 03:08:57;;;;;;;8.57;7.23;;;21.20;99.90;;;;;;5053743;28;20202;-54
2022/07/20 03:11:24;;;;;;;9.43;8.00;;;21.10;99.90;;;;;;5040265;28;20233;-54
2022/07/20 03:13:51;;;;;;;7.47;6.87;;;21.10;99.90;;;;;;5041720;28;20644;-54
2022/07/20 03:16:18;;;;;;;8.63;7.70;;;21.10;99.90;;;;;;5045533;28;20214;-54
2022/07/20 03:18:45;;;;;;;7.10;6.67;;;21.10;99.90;;;;;;5054315;28;20301;-54
2022/07/20 03:21:12;;;;;;;9.53;7.70;;;21.10;99.90;;;;;;5051689;28;20263;-54
2022/07/20 03:23:41;;;;;;;7.50;6.83;;;21.00;99.90;;;;;;5038431;28;20356;-54
2022/07/20 03:26:08;;;;;;;7.97;7.17;;;21.00;99.90;;;;;;5045295;28;20304;-54
2022/07/20 03:28:35;;;;;;;7.20;6.73;;;21.00;99.90;;;;;;5053644;28;20606;-54
2022/07/20 03:31:02;;;;;;;7.10;6.77;;;20.90;99.90;;;;;;5053757;28;20206;-54
2022/07/20 03:33:28;;;;;;;7.87;7.30;;;21.00;99.90;;;;;;5050703;28;20251;-54
2022/07/20 03:35:55;;;;;;;6.57;6.27;;;20.90;99.90;;;;;;5036020;28;20198;-54
2022/07/20 03:38:23;;;;;;;8.10;7.37;;;20.80;99.90;;;;;;5040279;28;20198;-54
2022/07/20 03:40:51;;;;;;;8.07;7.47;;;20.80;99.90;;;;;;5029815;28;20605;-54
2022/07/20 03:43:18;;;;;;;8.07;7.37;;;20.80;99.90;;;;;;5038211;28;20219;-54
2022/07/20 03:45:45;;;;;;;7.30;6.90;;;20.80;99.90;;;;;;5035463;28;20199;-53
2022/07/20 03:48:12;;;;;;;7.60;6.93;;;20.80;99.90;;;;;;5032533;28;20210;-53
2022/07/20 03:50:39;;;;;;;8.13;7.43;;;20.80;99.90;;;;;;5033881;28;20261;-54
2022/07/20 03:53:06;;;;;;;7.50;6.80;;;20.80;99.90;;;;;;5029151;28;20263;-54
2022/07/20 03:55:33;;;;;;;8.50;7.17;;;20.90;99.90;;;;;;5036536;28;20284;-55
2022/07/20 03:58:01;;;;;;;7.33;6.83;;;21.00;99.90;;;;;;5033604;28;20292;-54
2022/07/20 04:00:29;;;;;;;7.73;6.97;;;21.10;99.90;;;;;;5033505;28;20207;-55
2022/07/20 04:02:55;;;;;;;7.97;7.27;;;21.20;99.90;;;;;;5029700;28;20250;-53
2022/07/20 04:05:22;;;;;;;7.73;7.27;;;21.30;99.90;;;;;;5031729;28;20230;-54
2022/07/20 04:07:49;;;;;;;8.27;7.70;;;21.30;99.90;;;;;;5041260;28;20267;-54
2022/07/20 04:10:16;;;;;;;8.00;7.13;;;21.30;99.90;;;;;;5033012;28;20616;-54
2022/07/20 04:12:44;;;;;;;8.07;7.57;;;21.30;99.90;;;;;;5030514;28;20221;-54
2022/07/20 04:15:12;;;;;;;7.27;6.57;;;21.30;99.90;;;;;;5040983;28;20665;-54
2022/07/20 04:17:41;;;;;;;7.20;6.70;;;21.30;99.90;;;;;;5033141;28;20218;-54
2022/07/20 04:20:09;;;;;;;8.60;7.73;;;21.30;99.90;;;;;;5032837;28;20207;-54
2022/07/20 04:22:36;;;;;;;7.50;7.00;;;21.30;99.90;;;;;;5032243;28;20230;-54
2022/07/20 04:25:03;;;;;;;8.63;7.77;;;21.30;99.90;;;;;;5034971;28;20202;-54
2022/07/20 04:27:30;;;;;;;8.20;7.60;;;21.30;99.90;;;;;;5044410;28;20252;-53
2022/07/20 04:29:57;;;;;;;8.17;7.43;;;21.30;99.90;;;;;;5034572;28;20207;-54
2022/07/20 04:32:26;;;;;;;11.63;7.97;;;21.30;99.90;;;;;;5032113;28;20555;-54
2022/07/20 04:34:53;;;;;;;7.63;7.07;;;21.30;99.90;;;;;;5032868;28;20272;-54
2022/07/20 04:37:19;;;;;;;8.07;7.43;;;21.30;99.90;;;;;;5032686;28;20279;-54
2022/07/20 04:39:46;;;;;;;7.67;7.03;;;21.30;99.90;;;;;;5040988;28;20603;-54
2022/07/20 04:42:13;;;;;;;8.97;7.77;;;21.40;99.90;;;;;;5032010;28;20823;-52
2022/07/20 04:44:40;;;;;;;8.53;7.60;;;21.50;99.90;;;;;;5032014;28;20288;-54
2022/07/20 04:47:07;;;;;;;8.20;7.60;;;21.60;99.90;;;;;;5040810;28;20230;-51
2022/07/20 04:49:36;;;;;;;8.23;7.57;;;21.60;99.90;;;;;;5030251;28;20206;-54
2022/07/20 04:52:03;;;;;;;9.23;7.80;;;21.70;99.90;;;;;;5037300;28;20274;-54
2022/07/20 04:54:30;;;;;;;8.27;7.57;;;21.70;99.90;;;;;;5029132;28;20253;-51
2022/07/20 04:56:57;;;;;;;8.47;7.63;;;21.90;99.90;;;;;;5029347;28;20229;-54
2022/07/20 04:59:24;;;;;;;8.87;8.07;;;21.90;99.90;;;;;;5031261;28;20690;-54
2022/07/20 05:01:51;;;;;;;8.67;7.77;;;22.00;99.90;;;;;;5034358;28;20219;-54
2022/07/20 05:04:18;;;;;;;8.57;7.87;;;22.10;99.90;;;;;;5047569;28;20572;-54
2022/07/20 05:06:47;;;;;;;8.10;7.40;;;22.40;99.90;;;;;;5037303;28;20293;-54
2022/07/20 05:09:14;;;;;;;7.90;7.27;;;22.60;99.90;;;;;;5030780;28;20629;-55
2022/07/20 05:11:41;;;;;;;7.67;6.93;;;22.90;99.90;;;;;;5029857;28;20194;-54
2022/07/20 05:14:09;;;;;;;7.95;7.32;;;23.50;99.90;;;;;;5029177;28;20878;-54
2022/07/20 05:16:36;;;;;;;9.30;8.37;;;24.10;99.90;;;;;;5039830;28;20724;-54
2022/07/20 05:19:04;;;;;;;8.63;7.83;;;25.00;99.90;;;;;;5032868;28;20206;-54
2022/07/20 05:21:31;;;;;;;8.23;7.63;;;25.50;99.90;;;;;;5031505;28;20194;-54
2022/07/20 05:23:59;;;;;;;7.83;7.23;;;26.10;99.90;;;;;;5036947;28;20250;-54
2022/07/20 05:26:27;;;;;;;8.17;7.47;;;26.60;99.90;;;;;;5034005;28;20247;-54
2022/07/20 05:28:54;;;;;;;9.83;9.00;;;27.10;99.90;;;;;;5025574;28;20203;-54
2022/07/20 05:31:21;;;;;;;8.73;8.03;;;27.20;99.90;;;;;;5030441;28;20672;-55
2022/07/20 05:33:48;;;;;;;8.40;7.80;;;27.10;99.90;;;;;;5043845;28;20207;-54
2022/07/20 05:36:15;;;;;;;9.00;8.18;;;27.20;99.90;;;;;;5033351;28;20299;-53
2022/07/20 05:38:42;;;;;;;8.73;8.02;;;27.60;99.90;;;;;;5033136;28;20706;-55
2022/07/20 05:41:11;;;;;;;8.48;7.93;;;28.10;99.90;;;;;;5028174;28;20201;-54
2022/07/20 05:43:38;;;;;;;9.60;8.55;;;28.20;99.90;;;;;;5046095;28;20256;-54
2022/07/20 05:46:05;;;;;;;10.32;9.48;;;28.60;99.90;;;;;;5051173;28;20202;-55
2022/07/20 05:48:32;;;;;;;11.05;9.07;;;28.70;99.50;;;;;;5033891;28;20203;-54
2022/07/20 05:50:59;;;;;;;8.18;7.40;;;29.00;99.70;;;;;;5041314;28;20264;-54
2022/07/20 05:53:26;;;;;;;9.63;8.70;;;29.30;99.90;;;;;;5037985;28;20264;-54
2022/07/20 05:55:53;;;;;;;9.45;8.57;;;29.90;99.90;;;;;;5026558;28;20615;-54
2022/07/20 05:58:22;;;;;;;8.75;8.15;;;30.20;98.70;;;;;;5036988;28;20256;-55
2022/07/20 06:00:49;;;;;;;10.32;9.45;;;30.70;98.70;;;;;;5024696;28;20202;-54
2022/07/20 06:03:16;;;;;;;9.98;9.13;;;30.50;97.10;;;;;;5037219;28;20203;-54
2022/07/20 06:05:43;;;;;;;14.68;9.63;;;30.70;97.50;;;;;;5028569;28;20296;-55
2022/07/20 06:08:10;;;;;;;9.77;8.90;;;31.30;96.60;;;;;;5042749;28;20271;-54
2022/07/20 06:10:37;;;;;;;10.52;9.15;;;31.10;96.00;;;;;;5036313;28;20268;-54
2022/07/20 06:13:05;;;;;;;11.25;8.75;;;31.50;95.10;;;;;;5041124;28;20229;-54
2022/07/20 06:15:33;;;;;;;10.15;9.20;;;31.70;95.90;;;;;;5050926;28;20206;-54
2022/07/20 06:18:01;;;;;;;10.38;9.43;;;31.60;95.00;;;;;;5050929;28;20275;-55
2022/07/20 06:20:28;;;;;;;11.07;8.50;;;31.80;94.80;;;;;;5039704;28;20617;-54
2022/07/20 06:22:55;;;;;;;9.85;8.98;;;32.10;95.10;;;;;;5030120;28;20198;-55
2022/07/20 06:25:23;;;;;;;9.75;8.98;;;32.30;94.10;;;;;;5030490;28;20252;-55
2022/07/20 06:27:50;;;;;;;10.50;9.27;;;32.50;94.00;;;;;;5030425;28;20309;-54
2022/07/20 06:30:17;;;;;;;10.45;9.52;;;32.90;93.50;;;;;;5033719;28;20294;-54
2022/07/20 06:32:45;;;;;;;10.80;9.73;;;33.20;92.50;;;;;;5026067;28;20265;-55
2022/07/20 06:35:12;;;;;;;10.52;9.45;;;33.40;92.40;;;;;;5029589;28;20225;-54
2022/07/20 06:37:40;;;;;;;10.38;9.13;;;33.50;93.40;;;;;;5042048;28;20269;-54
2022/07/20 06:40:08;;;;;;;9.13;8.52;;;33.60;91.80;;;;;;5049927;28;20197;-54
2022/07/20 06:42:35;;;;;;;10.52;9.68;;;33.60;91.70;;;;;;5033100;28;20213;-54
2022/07/20 06:45:03;;;;;;;11.65;8.40;;;33.90;92.20;;;;;;5041974;28;20778;-54
2022/07/20 06:47:30;;;;;;;9.90;9.00;;;33.80;92.50;;;;;;5050210;28;20229;-55
2022/07/20 06:49:58;;;;;;;9.45;8.82;;;34.30;91.20;;;;;;5050612;28;20647;-54
2022/07/20 06:52:25;;;;;;;11.20;10.27;;;34.50;91.00;;;;;;5039711;28;20257;-54
2022/07/20 06:54:52;;;;;;;9.73;9.02;;;34.80;91.70;;;;;;5048177;28;20194;-54
2022/07/20 06:57:19;;;;;;;9.85;9.10;;;34.90;90.10;;;;;;5050599;28;20268;-54
2022/07/20 06:59:46;;;;;;;10.48;9.68;;;35.20;90.00;;;;;;5030633;28;20674;-54
2022/07/20 07:02:13;;;;;;;10.13;9.07;;;35.70;87.70;;;;;;5026865;28;20257;-55
2022/07/20 07:04:40;;;;;;;10.98;10.02;;;35.90;90.50;;;;;;5037704;28;20279;-54
2022/07/20 07:07:09;;;;;;;10.63;9.90;;;35.90;88.20;;;;;;5050380;28;20222;-55
2022/07/20 07:09:36;;;;;;;9.38;8.68;;;35.80;85.10;;;;;;5036595;28;20210;-55
2022/07/20 07:12:03;;;;;;;9.35;8.52;;;36.30;87.70;;;;;;5025235;28;20572;-55
2022/07/20 07:14:30;;;;;;;9.88;8.93;;;36.10;88.30;;;;;;5032309;28;20202;-55
2022/07/20 07:16:57;;;;;;;9.38;8.68;;;36.00;90.00;;;;;;5030567;28;21812;-54
2022/07/20 07:19:24;;;;;;;9.00;8.60;;;36.10;87.20;;;;;;5040375;28;20241;-55
2022/07/20 07:21:51;;;;;;;10.70;10.20;;;36.50;87.20;;;;;;5035503;28;20203;-55
2022/07/20 07:24:20;;;;;;;9.82;9.13;;;36.60;84.80;;;;;;5037966;28;20225;-56
2022/07/20 07:26:47;;;;;;;9.02;8.63;;;36.70;83.00;;;;;;5045312;28;20214;-55
2022/07/20 07:29:14;;;;;;;10.77;9.95;;;36.90;81.70;;;;;;5042609;28;20202;-55
2022/07/20 07:31:41;;;;;;;10.27;8.90;;;37.10;86.00;;;;;;5041622;28;20203;-55
2022/07/20 07:34:08;;;;;;;10.52;9.80;;;36.90;85.00;;;;;;5044051;28;20623;-54
2022/07/20 07:36:35;;;;;;;9.52;8.93;;;36.70;81.60;;;;;;5040534;28;20672;-55
2022/07/20 07:39:02;;;;;;;9.93;9.02;;;36.50;87.80;;;;;;5024983;28;20199;-53
2022/07/20 07:41:31;;;;;;;9.57;8.68;;;35.90;83.60;;;;;;5029950;28;20202;-53
2022/07/20 07:43:58;;;;;;;11.13;10.18;;;36.00;84.30;;;;;;5032580;28;20219;-55
2022/07/20 07:46:25;;;;;;;11.45;10.23;;;36.10;85.30;;;;;;5034779;28;20229;-55
2022/07/20 07:48:52;;;;;;;9.85;9.15;;;36.20;82.80;;;;;;5043061;28;20565;-53
2022/07/20 07:51:19;;;;;;;9.32;8.52;;;36.50;85.30;;;;;;5045484;28;20205;-53
2022/07/20 07:53:46;;;;;;;11.65;10.63;;;37.00;84.80;;;;;;5037390;28;20252;-53
2022/07/20 07:56:13;;;;;;;10.60;9.95;;;37.40;85.50;;;;;;5036033;28;20462;-55
2022/07/20 07:58:45;;;;;;;11.27;10.40;;;37.10;86.90;;;;;;5034874;28;20564;-53
2022/07/20 08:01:12;;;;;;;11.68;10.80;;;37.50;82.20;;;;;;5036736;28;20248;-55
2022/07/20 08:03:39;;;;;;;10.15;9.60;;;37.00;84.90;;;;;;5035173;28;20248;-54
2022/07/20 08:06:07;;;;;;;11.70;10.80;;;36.90;88.60;;;;;;5032753;28;20717;-55
2022/07/20 08:08:34;;;;;;;11.68;10.57;;;37.20;83.40;;;;;;5039174;28;20194;-55
2022/07/20 08:11:01;;;;;;;10.63;9.90;;;36.70;86.00;;;;;;5042671;28;20245;-55
2022/07/20 08:13:28;;;;;;;11.07;10.07;;;37.20;84.60;;;;;;5035685;28;20202;-54
2022/07/20 08:15:57;;;;;;;11.95;10.80;;;37.50;86.00;;;;;;5032049;28;20252;-55
2022/07/20 08:18:24;;;;;;;12.80;11.93;;;37.80;84.10;;;;;;5035027;28;20203;-53
2022/07/20 08:20:52;;;;;;;12.07;11.32;;;38.20;81.10;;;;;;5040342;28;20229;-53
2022/07/20 08:23:19;;;;;;;11.90;10.95;;;38.10;81.40;;;;;;5039823;28;20226;-52
2022/07/20 08:25:46;;;;;;;10.88;10.18;;;38.00;79.90;;;;;;5038214;28;20219;-52
2022/07/20 08:28:14;;;;;;;12.00;11.02;;;37.80;81.70;;;;;;5050395;28;20621;-53
2022/07/20 08:30:43;;;;;;;10.27;9.65;;;37.80;84.60;;;;;;5041277;28;20285;-54
2022/07/20 08:33:11;;;;;;;10.65;9.95;;;38.00;83.20;;;;;;5032759;28;20748;-53
2022/07/20 08:35:39;;;;;;;11.13;10.18;;;38.60;81.20;;;;;;5027804;28;20206;-53
2022/07/20 08:38:07;;;;;;;12.18;11.27;;;38.40;78.80;;;;;;5044519;28;20217;-54
2022/07/20 08:40:35;;;;;;;10.07;9.43;;;38.50;79.60;;;;;;5050153;28;20200;-53
2022/07/20 08:43:02;;;;;;;11.38;10.27;;;39.00;80.10;;;;;;5037813;28;20980;-54
2022/07/20 08:45:31;;;;;;;11.45;10.55;;;39.10;80.10;;;;;;5033467;28;20225;-53
2022/07/20 08:48:01;;;;;;;13.00;11.52;;;38.80;77.40;;;;;;5034574;28;20218;-55
2022/07/20 08:50:32;;;;;;;12.48;10.55;;;39.10;76.90;;;;;;5027712;28;20198;-55
2022/07/20 08:52:59;;;;;;;11.35;10.38;;;39.40;78.60;;;;;;5043163;28;20242;-54
2022/07/20 08:55:27;;;;;;;10.73;10.20;;;39.40;81.30;;;;;;5042042;28;20222;-55
2022/07/20 08:57:54;;;;;;;11.35;10.52;;;39.60;84.70;;;;;;5050508;28;20214;-54
2022/07/20 09:00:22;;;;;;;11.65;10.65;;;39.50;87.70;;;;;;5034220;28;20643;-55
2022/07/20 09:02:52;;;;;;;11.18;10.30;;;39.90;76.90;;;;;;5034596;28;20271;-55
2022/07/20 09:05:20;;;;;;;11.00;10.20;;;39.90;83.90;;;;;;5032281;28;20274;-53
2022/07/20 09:07:50;;;;;;;12.75;11.57;;;39.80;82.70;;;;;;5036886;28;20261;-53
2022/07/20 09:10:19;;;;;;;11.75;9.93;;;39.70;81.80;;;;;;5049883;28;20242;-53
2022/07/20 09:12:55;;;;;;;10.95;10.15;;;39.70;86.70;;;;;;5045905;28;20202;-53
2022/07/20 09:15:29;;;;;;;12.02;11.02;;;40.00;79.60;;;;;;5033247;28;20186;-52
2022/07/20 09:18:15;;;;;;;11.73;10.75;;;39.50;80.80;;;;;;5025173;28;20222;-54
2022/07/20 09:20:45;;;;;;;11.38;10.77;;;39.80;79.80;;;;;;5029138;28;20584;-53
2022/07/20 09:23:15;;;;;;;12.85;11.80;;;39.70;81.30;;;;;;5032226;28;20190;-53
2022/07/20 09:25:53;;;;;;;12.40;11.60;;;40.10;77.50;;;;;;5049544;28;20237;-53
2022/07/20 09:28:21;;;;;;;11.15;10.35;;;40.00;81.20;;;;;;5032665;28;20209;-53
2022/07/20 09:30:53;;;;;;;12.57;11.68;;;40.20;85.80;;;;;;5034912;28;20198;-53
2022/07/20 09:33:28;;;;;;;13.00;11.85;;;39.40;81.50;;;;;;5025653;28;20195;-54
2022/07/20 09:35:56;;;;;;;12.10;11.40;;;39.60;84.80;;;;;;5034965;28;20249;-54
2022/07/20 09:38:33;;;;;;;12.10;11.23;;;39.80;81.80;;;;;;5031627;28;20229;-54
2022/07/20 09:41:00;;;;;;;11.30;10.65;;;39.40;83.10;;;;;;5031479;28;20206;-53
2022/07/20 09:43:33;;;;;;;10.98;10.20;;;38.70;87.20;;;;;;5036673;28;20209;-53
2022/07/20 09:46:19;;;;;;;11.50;10.80;;;38.80;84.30;;;;;;5031423;28;20521;-52
2022/07/20 09:48:51;;;;;;;17.05;11.77;;;38.60;86.60;;;;;;5030101;28;20778;-55
2022/07/20 09:51:20;;;;;;;13.55;12.32;;;38.10;84.10;;;;;;5030463;28;20248;-55
2022/07/20 09:53:48;;;;;;;12.05;11.05;;;38.30;85.20;;;;;;5031569;28;20276;-54
2022/07/20 09:56:17;;;;;;;13.25;12.15;;;37.40;86.10;;;;;;5031285;28;20265;-55
2022/07/20 09:58:46;;;;;;;12.18;11.07;;;36.90;89.90;;;;;;5027963;28;20234;-55
2022/07/20 10:01:17;;;;;;;12.07;11.18;;;37.00;89.90;;;;;;5028715;28;20209;-55
2022/07/20 10:03:46;;;;;;;12.63;11.75;;;37.50;88.30;;;;;;5033379;28;20206;-55
2022/07/20 10:06:14;;;;;;;11.90;11.00;;;37.40;86.90;;;;;;5031212;28;20305;-55
2022/07/20 10:08:41;;;;;;;11.20;10.48;;;37.60;90.50;;;;;;5037935;28;20680;-54
2022/07/20 10:11:09;;;;;;;12.30;10.30;;;38.10;84.90;;;;;;5032044;28;20745;-54
2022/07/20 10:13:38;;;;;;;11.68;11.07;;;38.00;88.40;;;;;;5030611;28;20198;-54
2022/07/20 10:16:10;;;;;;;11.13;10.43;;;38.00;83.10;;;;;;5026364;28;20672;-55
2022/07/20 10:18:38;;;;;;;15.25;10.55;;;38.10;87.60;;;;;;5029495;28;20644;-54
2022/07/20 10:21:33;;;;;;;10.90;10.30;;;38.20;88.60;;;;;;5033048;28;20206;-54
2022/07/20 10:24:15;;;;;;;12.07;11.10;;;38.30;81.80;;;;;;5040274;28;20630;-54
2022/07/20 10:26:44;;;;;;;11.77;10.75;;;38.40;85.20;;;;;;5043344;28;20291;-54
2022/07/20 10:29:11;;;;;;;12.32;11.00;;;38.20;82.60;;;;;;5045675;28;20206;-54
2022/07/20 10:31:51;;;;;;;12.35;11.48;;;37.60;84.10;;;;;;5050197;28;20205;-54
2022/07/20 10:34:35;;;;;;;11.63;10.70;;;37.20;84.80;;;;;;5050748;28;20205;-54
2022/07/20 10:37:29;;;;;;;11.77;10.88;;;37.20;83.70;;;;;;5050755;28;20217;-54
2022/07/20 10:40:14;;;;;;;11.45;10.73;;;37.30;82.50;;;;;;5043511;28;20239;-54
2022/07/20 10:42:43;;;;;;;11.80;10.82;;;37.60;83.50;;;;;;5038781;28;20737;-54
2022/07/20 10:45:31;;;;;;;10.60;9.98;;;37.70;85.10;;;;;;5032310;28;20221;-55
2022/07/20 10:48:15;;;;;;;11.48;10.52;;;37.90;84.70;;;;;;5043937;28;20276;-54
2022/07/20 10:50:44;;;;;;;11.70;11.00;;;37.50;82.90;;;;;;5047813;28;20209;-54
2022/07/20 10:53:36;;;;;;;11.73;11.00;;;37.30;80.60;;;;;;5033574;28;20299;-54
2022/07/20 10:56:05;;;;;;;10.82;10.07;;;37.50;86.60;;;;;;5029675;28;20285;-55
2022/07/20 10:58:38;;;;;;;11.00;10.20;;;37.60;81.70;;;;;;5033773;28;20214;-54
2022/07/20 11:01:07;;;;;;;12.45;11.43;;;37.20;85.30;;;;;;5034399;28;20191;-54
2022/07/20 11:03:38;;;;;;;12.00;10.93;;;36.70;80.30;;;;;;5033772;28;20272;-54
2022/07/20 11:06:08;;;;;;;10.75;10.05;;;36.50;81.50;;;;;;5033718;28;20218;-54
2022/07/20 11:08:36;;;;;;;12.85;11.77;;;36.40;83.70;;;;;;5035761;28;20230;-54
2022/07/20 11:11:03;;;;;;;11.85;10.75;;;36.60;82.70;;;;;;5037968;28;20237;-53
2022/07/20 11:13:30;;;;;;;11.95;11.10;;;36.30;83.20;;;;;;5039766;28;20667;-55
2022/07/20 11:16:00;;;;;;;13.18;12.35;;;36.10;85.00;;;;;;5035416;28;20257;-53
2022/07/20 11:18:29;;;;;;;11.88;11.07;;;36.20;84.70;;;;;;5034037;28;20267;-54
2022/07/20 11:20:58;;;;;;;10.75;9.80;;;36.10;87.40;;;;;;5032880;28;20264;-54
2022/07/20 11:23:28;;;;;;;12.00;11.27;;;36.20;83.90;;;;;;5036362;28;20199;-54
2022/07/20 11:25:56;;;;;;;12.50;11.55;;;36.20;84.40;;;;;;5033150;28;20211;-53
2022/07/20 11:28:24;;;;;;;12.27;11.20;;;36.30;84.60;;;;;;5034186;28;20203;-54
2022/07/20 11:30:52;;;;;;;11.95;10.93;;;36.10;83.40;;;;;;5040419;28;20667;-54
2022/07/20 11:33:26;;;;;;;12.13;11.10;;;35.90;84.70;;;;;;5030544;28;20203;-54
2022/07/20 11:35:54;;;;;;;11.63;10.57;;;35.80;85.40;;;;;;5043032;28;20195;-53
2022/07/20 11:38:21;;;;;;;13.63;12.50;;;35.70;84.70;;;;;;5033901;28;20233;-54
2022/07/20 11:40:58;;;;;;;12.65;11.00;;;35.80;85.00;;;;;;5029494;28;20268;-54
2022/07/20 11:43:25;;;;;;;11.48;10.75;;;35.70;84.90;;;;;;5032753;28;20273;-54
2022/07/20 11:45:52;;;;;;;11.90;11.07;;;35.60;84.60;;;;;;5032853;28;20218;-54
2022/07/20 11:48:20;;;;;;;11.02;10.40;;;35.50;86.20;;;;;;5035470;28;20210;-54
2022/07/20 11:50:49;;;;;;;11.02;10.30;;;35.60;87.50;;;;;;5039440;28;20310;-54
2022/07/20 11:53:28;;;;;;;11.75;10.80;;;35.50;85.10;;;;;;5052827;28;20654;-54
2022/07/20 11:55:55;;;;;;;12.23;11.45;;;35.40;88.80;;;;;;5042124;28;20194;-53
2022/07/20 11:58:28;;;;;;;10.43;9.98;;;35.30;85.80;;;;;;5031711;28;20723;-54
2022/07/20 12:00:56;;;;;;;10.57;9.93;;;35.20;88.70;;;;;;5040363;28;20261;-54
2022/07/20 12:03:26;;;;;;;11.00;10.20;;;35.20;84.40;;;;;;5032784;28;20202;-53
2022/07/20 12:05:54;;;;;;;13.43;12.45;;;35.10;86.50;;;;;;5031561;28;20647;-54
2022/07/20 12:08:24;;;;;;;12.95;11.80;;;34.90;87.20;;;;;;5035439;28;20203;-54
2022/07/20 12:10:51;;;;;;;11.98;11.20;;;34.70;88.30;;;;;;5033771;28;20198;-54
2022/07/20 12:13:18;;;;;;;11.95;11.35;;;34.70;86.10;;;;;;5038763;28;20198;-54
2022/07/20 12:16:00;;;;;;;10.07;9.50;;;34.60;88.20;;;;;;5051283;28;20202;-54
2022/07/20 12:18:35;;;;;;;15.07;12.05;;;34.80;88.30;;;;;;5027846;28;20617;-54
2022/07/20 12:21:05;;;;;;;11.18;10.48;;;34.80;87.20;;;;;;5044409;28;20264;-53
2022/07/20 12:23:33;;;;;;;10.95;10.30;;;34.90;88.50;;;;;;5032215;28;20244;-54
2022/07/20 12:26:01;;;;;;;14.45;10.90;;;34.90;86.60;;;;;;5032078;28;20304;-54
2022/07/20 12:28:30;;;;;;;11.70;10.80;;;34.70;88.20;;;;;;5033360;28;20207;-54
2022/07/20 12:31:10;;;;;;;11.85;10.95;;;34.80;88.60;;;;;;5032155;28;20214;-53
2022/07/20 12:33:37;;;;;;;11.30;10.50;;;35.00;91.40;;;;;;5031909;28;20205;-54
2022/07/20 12:36:07;;;;;;;19.80;10.73;;;34.80;84.60;;;;;;5031887;28;20225;-54
2022/07/20 12:38:35;;;;;;;11.40;10.35;;;34.70;86.40;;;;;;5039005;28;20256;-54
2022/07/20 12:41:12;;;;;;;11.15;10.57;;;34.40;90.00;;;;;;5033482;28;20221;-53
2022/07/20 12:43:41;;;;;;;10.18;9.63;;;34.30;88.00;;;;;;5031825;28;20194;-53
2022/07/20 12:46:10;;;;;;;11.10;10.35;;;34.40;90.30;;;;;;5027589;28;20249;-53
2022/07/20 12:48:38;;;;;;;10.82;9.95;;;34.50;90.40;;;;;;5041287;28;20242;-54